Arbuckle, West Virginia
Current Conditions -  °F | °C
As of 10:55 AM on Saturday 25 Oct 2014 (Local Time) from K3I2 Reporting Station
Clear Clear  
Wind Chill: 15°   Ceiling: Unl
Heat Index: 15°   Visibility: 10mi
Dew Point:   Wind: 5mph
Humidity: 63%   Direction: 200°SSW
Pressure: 30.04"   Gusts: NA
Location:  38.7463°N, 81.8897°W
Report Text: K3I2 251455Z AUTO 20004KT 10SM CLR 15/08 A3004 RMK AO2
Loading
Personal Weather Stations






























Interactive Weather Map
Tropical Storm Tracking
New forecast layout! Learn more

10-Day Weather Forecast

Advertisements
Track Severe Weather on mobile